createdAt,value
2016-01-13T00:00:07.325Z,99.77
2016-01-13T00:00:18.794Z,99.77
2016-01-13T00:00:30.263Z,99.21
2016-01-13T00:00:41.013Z,99.96
2016-01-13T00:00:52.481Z,99.96
2016-01-13T00:01:03.950Z,99.87
2016-01-13T00:01:15.250Z,99.96
2016-01-13T00:01:26.734Z,99.68
2016-01-13T00:01:38.219Z,99.77
2016-01-13T00:01:49.703Z,99.77
2016-01-13T00:02:01.203Z,99.77
2016-01-13T00:02:12.705Z,99.68
2016-01-13T00:02:24.205Z,99.68
2016-01-13T00:02:35.658Z,99.68
2016-01-13T00:02:47.127Z,99.87
2016-01-13T00:02:58.580Z,99.58
2016-01-13T00:03:10.053Z,99.99
2016-01-13T00:03:21.506Z,99.96
2016-01-13T00:03:32.256Z,99.68
2016-01-13T00:03:43.725Z,99.68
2016-01-13T00:03:55.194Z,99.77
2016-01-13T00:04:06.662Z,99.77
2016-01-13T00:04:18.149Z,99.68
2016-01-13T00:04:29.617Z,99.68
2016-01-13T00:04:41.117Z,99.68
2016-01-13T00:04:51.914Z,99.68
2016-01-13T00:05:03.399Z,99.68
2016-01-13T00:05:14.886Z,99.77
2016-01-13T00:05:26.355Z,99.49
2016-01-13T00:05:37.824Z,99.77
2016-01-13T00:05:49.292Z,99.68
2016-01-13T00:06:00.761Z,99.68
2016-01-13T00:06:12.233Z,99.99
2016-01-13T00:06:23.702Z,99.99
2016-01-13T00:06:35.170Z,99.99
2016-01-13T00:06:45.920Z,99.68
2016-01-13T00:06:57.389Z,99.58
2016-01-13T00:07:08.842Z,99.68
2016-01-13T00:07:20.188Z,99.87
2016-01-13T00:07:31.657Z,99.99
2016-01-13T00:07:43.157Z,99.68
2016-01-13T00:07:54.610Z,99.99
2016-01-13T00:08:06.047Z,99.87
2016-01-13T00:08:17.519Z,99.99
2016-01-13T00:08:28.988Z,99.58
2016-01-13T00:08:40.457Z,99.68
2016-01-13T00:08:51.941Z,99.99
2016-01-13T00:09:03.425Z,99.68
2016-01-13T00:09:14.913Z,99.68
2016-01-13T00:09:26.397Z,99.96
2016-01-13T00:09:37.194Z,99.77
2016-01-13T00:09:48.694Z,99.87
2016-01-13T00:10:00.178Z,99.68
2016-01-13T00:10:11.631Z,99.68
2016-01-13T00:10:23.087Z,99.68
2016-01-13T00:10:34.540Z,99.68
2016-01-13T00:10:45.993Z,99.68
2016-01-13T00:10:57.477Z,99.68
2016-01-13T00:11:08.962Z,99.68
2016-01-13T00:11:20.262Z,99.77
2016-01-13T00:11:31.731Z,99.87
2016-01-13T00:11:43.216Z,99.87
2016-01-13T00:11:54.684Z,99.77
2016-01-13T00:12:06.169Z,99.87
2016-01-13T00:12:17.655Z,99.49
2016-01-13T00:12:29.139Z,99.77
2016-01-13T00:12:40.639Z,99.21
2016-01-13T00:12:52.093Z,99.87
2016-01-13T00:13:03.561Z,99.49
2016-01-13T00:13:15.030Z,99.49
2016-01-13T00:13:26.471Z,99.87
2016-01-13T00:13:37.939Z,99.3
2016-01-13T00:13:49.392Z,99.77
2016-01-13T00:14:00.861Z,99.49
2016-01-13T00:14:12.346Z,99.87
2016-01-13T00:14:23.816Z,99.77
2016-01-13T00:14:35.301Z,99.77
2016-01-13T00:14:46.785Z,99.49
2016-01-13T00:14:58.269Z,99.58
2016-01-13T00:15:09.754Z,99.58
2016-01-13T00:15:21.257Z,99.49
2016-01-13T00:15:32.726Z,99.4
2016-01-13T00:15:44.179Z,99.68
2016-01-13T00:15:55.632Z,99.3
2016-01-13T00:16:07.101Z,99.68
2016-01-13T00:16:18.557Z,99.49
2016-01-13T00:16:30.025Z,99.49
2016-01-13T00:16:41.494Z,99.77
2016-01-13T00:16:52.963Z,99.49
2016-01-13T00:17:04.416Z,99.3
2016-01-13T00:17:15.900Z,99.3
2016-01-13T00:17:27.388Z,99.3
2016-01-13T00:17:38.872Z,99.49
2016-01-13T00:17:50.357Z,99.3
2016-01-13T00:18:01.857Z,99.49
2016-01-13T00:18:13.310Z,99.49
2016-01-13T00:18:24.766Z,99.49
2016-01-13T00:18:36.235Z,99.3
2016-01-13T00:18:47.672Z,99.49
2016-01-13T00:18:59.141Z,99.77
2016-01-13T00:19:10.594Z,99.49
2016-01-13T00:19:22.049Z,99.49
2016-01-13T00:19:33.518Z,99.49
2016-01-13T00:19:44.987Z,99.4
2016-01-13T00:19:56.471Z,99.3
2016-01-13T00:20:07.940Z,99.87
2016-01-13T00:20:18.705Z,99.87
2016-01-13T00:20:30.207Z,99.21
2016-01-13T00:20:41.660Z,99.77
2016-01-13T00:20:53.114Z,99.77
2016-01-13T00:21:04.582Z,99.58
2016-01-13T00:21:16.051Z,99.87
2016-01-13T00:21:27.507Z,99.77
2016-01-13T00:21:38.976Z,99.77
2016-01-13T00:21:50.460Z,99.68
2016-01-13T00:22:01.913Z,99.99
2016-01-13T00:22:13.398Z,99.68
2016-01-13T00:22:24.854Z,99.58
2016-01-13T00:22:36.338Z,99.87
2016-01-13T00:22:47.823Z,99.87
2016-01-13T00:22:59.291Z,99.58
2016-01-13T00:23:10.745Z,99.87
2016-01-13T00:23:22.216Z,99.99
2016-01-13T00:23:33.685Z,99.99
2016-01-13T00:23:45.154Z,99.99
2016-01-13T00:23:56.623Z,99.87
2016-01-13T00:24:08.076Z,99.99
2016-01-13T00:24:19.544Z,99.99
2016-01-13T00:24:31.000Z,99.99
2016-01-13T00:24:42.484Z,99.68
2016-01-13T00:24:53.968Z,99.3
2016-01-13T00:25:05.453Z,99.99
2016-01-13T00:25:16.937Z,99.58
2016-01-13T00:25:28.393Z,99.87
2016-01-13T00:25:39.831Z,99.99
2016-01-13T00:25:51.299Z,99.58
2016-01-13T00:26:02.753Z,99.77
2016-01-13T00:26:14.221Z,99.68
2016-01-13T00:26:25.693Z,99.68
2016-01-13T00:26:37.162Z,99.58
2016-01-13T00:26:48.646Z,99.68
2016-01-13T00:26:59.959Z,99.68
2016-01-13T00:27:11.427Z,99.68
2016-01-13T00:27:22.929Z,99.77
2016-01-13T00:27:34.429Z,99.68
2016-01-13T00:27:45.929Z,99.77
2016-01-13T00:27:57.383Z,99.87
2016-01-13T00:28:08.836Z,99.58
2016-01-13T00:28:20.289Z,99.96
2016-01-13T00:28:31.761Z,99.77
2016-01-13T00:28:43.229Z,99.77
2016-01-13T00:28:54.698Z,99.77
2016-01-13T00:29:06.151Z,99.68
2016-01-13T00:29:17.620Z,99.87
2016-01-13T00:29:29.060Z,99.87
2016-01-13T00:29:40.545Z,99.77
2016-01-13T00:29:52.014Z,99.77
2016-01-13T00:30:03.498Z,99.77
2016-01-13T00:30:14.998Z,99.77
2016-01-13T00:30:26.500Z,99.77
2016-01-13T00:30:37.984Z,99.87
2016-01-13T00:30:49.469Z,99.68
2016-01-13T00:31:00.906Z,99.77
2016-01-13T00:31:12.375Z,99.58
2016-01-13T00:31:23.847Z,99.87
2016-01-13T00:31:35.300Z,99.77
2016-01-13T00:31:46.800Z,99.87
2016-01-13T00:31:58.269Z,99.77
2016-01-13T00:32:09.737Z,99.77
2016-01-13T00:32:21.222Z,99.87
2016-01-13T00:32:32.693Z,99.77
2016-01-13T00:32:44.162Z,99.87
2016-01-13T00:32:55.662Z,99.77
2016-01-13T00:33:07.115Z,99.96
2016-01-13T00:33:18.568Z,99.77
2016-01-13T00:33:30.040Z,99.49
2016-01-13T00:33:41.493Z,99.87
2016-01-13T00:33:52.962Z,99.96
2016-01-13T00:34:04.446Z,99.96
2016-01-13T00:34:15.900Z,99.77
2016-01-13T00:34:27.370Z,99.49
2016-01-13T00:34:38.839Z,99.77
2016-01-13T00:34:50.292Z,99.77
2016-01-13T00:35:01.761Z,99.21
2016-01-13T00:35:13.245Z,99.77
2016-01-13T00:35:24.764Z,99.96
2016-01-13T00:35:36.264Z,99.77
2016-01-13T00:35:47.733Z,99.68
2016-01-13T00:35:59.186Z,99.96
2016-01-13T00:36:10.655Z,99.96
2016-01-13T00:36:22.123Z,99.96
2016-01-13T00:36:33.578Z,99.58
2016-01-13T00:36:45.047Z,99.96
2016-01-13T00:36:56.516Z,99.87
2016-01-13T00:37:07.985Z,99.58
2016-01-13T00:37:19.469Z,99.96
2016-01-13T00:37:30.956Z,99.87
2016-01-13T00:37:42.425Z,99.87
2016-01-13T00:37:53.910Z,99.77
2016-01-13T00:38:05.394Z,99.68
2016-01-13T00:38:16.878Z,99.77
2016-01-13T00:38:28.334Z,99.68
2016-01-13T00:38:39.803Z,99.68
2016-01-13T00:38:51.241Z,99.68
2016-01-13T00:39:02.709Z,99.68
2016-01-13T00:39:14.163Z,99.58
2016-01-13T00:39:25.619Z,99.68
2016-01-13T00:39:37.087Z,99.99
2016-01-13T00:39:48.541Z,99.58
2016-01-13T00:39:59.306Z,99.99
2016-01-13T00:40:10.759Z,99.68
2016-01-13T00:40:22.244Z,99.99
2016-01-13T00:40:33.575Z,99.68
2016-01-13T00:40:45.075Z,99.87
2016-01-13T00:40:56.606Z,99.87
2016-01-13T00:41:08.075Z,99.99
2016-01-13T00:41:19.528Z,99.99
2016-01-13T00:41:30.999Z,99.99
2016-01-13T00:41:42.467Z,99.99
2016-01-13T00:41:53.921Z,99.77
2016-01-13T00:42:05.389Z,99.87
2016-01-13T00:42:16.842Z,99.68
2016-01-13T00:42:28.314Z,99.77
2016-01-13T00:42:39.783Z,99.68
2016-01-13T00:42:51.252Z,99.68
2016-01-13T00:43:02.736Z,99.68
2016-01-13T00:43:13.533Z,99.68
2016-01-13T00:43:24.986Z,99.77
2016-01-13T00:43:36.458Z,99.77
2016-01-13T00:43:47.927Z,99.77
2016-01-13T00:43:59.380Z,99.68
2016-01-13T00:44:10.848Z,99.77
2016-01-13T00:44:22.302Z,99.68
2016-01-13T00:44:33.788Z,99.68
2016-01-13T00:44:45.288Z,99.77
2016-01-13T00:44:56.772Z,99.68
2016-01-13T00:45:08.272Z,99.77
2016-01-13T00:45:19.772Z,99.58
2016-01-13T00:45:31.291Z,99.68
2016-01-13T00:45:42.744Z,99.68
2016-01-13T00:45:54.213Z,99.68
2016-01-13T00:46:05.682Z,99.58
2016-01-13T00:46:17.135Z,99.87
2016-01-13T00:46:28.605Z,99.77
2016-01-13T00:46:40.090Z,99.77
2016-01-13T00:46:51.543Z,99.49
2016-01-13T00:47:03.027Z,99.99
2016-01-13T00:47:14.496Z,99.96
2016-01-13T00:47:25.965Z,99.87
2016-01-13T00:47:37.438Z,99.49
2016-01-13T00:47:48.922Z,99.87
2016-01-13T00:48:00.406Z,99.87
2016-01-13T00:48:11.891Z,99.49
2016-01-13T00:48:23.359Z,99.3
2016-01-13T00:48:34.830Z,99.87
2016-01-13T00:48:46.299Z,99.3
2016-01-13T00:48:57.815Z,99.49
2016-01-13T00:49:09.268Z,99.3
2016-01-13T00:49:20.721Z,99.3
2016-01-13T00:49:32.177Z,99.3
2016-01-13T00:49:43.630Z,99.58
2016-01-13T00:49:55.114Z,99.87
2016-01-13T00:50:06.599Z,99.3
2016-01-13T00:50:18.068Z,99.4
2016-01-13T00:50:29.571Z,99.3
2016-01-13T00:50:41.055Z,99.4
2016-01-13T00:50:52.508Z,99.49
2016-01-13T00:51:03.977Z,99.4
2016-01-13T00:51:15.430Z,99.4
2016-01-13T00:51:26.899Z,99.4
2016-01-13T00:51:38.354Z,99.3
2016-01-13T00:51:49.119Z,99.4
2016-01-13T00:52:00.573Z,99.77
2016-01-13T00:52:12.041Z,99.58
2016-01-13T00:52:23.526Z,99.49
2016-01-13T00:52:34.997Z,99.58
2016-01-13T00:52:46.482Z,99.58
2016-01-13T00:52:57.966Z,99.58
2016-01-13T00:53:09.451Z,99.58
2016-01-13T00:53:20.904Z,99.58
2016-01-13T00:53:32.375Z,99.68
2016-01-13T00:53:43.844Z,99.58
2016-01-13T00:53:55.313Z,99.77
2016-01-13T00:54:06.782Z,99.58
2016-01-13T00:54:18.235Z,99.58
2016-01-13T00:54:29.704Z,99.77
2016-01-13T00:54:41.143Z,99.58
2016-01-13T00:54:52.612Z,99.77
2016-01-13T00:55:04.081Z,99.58
2016-01-13T00:55:15.549Z,99.4
2016-01-13T00:55:27.065Z,99.77
2016-01-13T00:55:38.552Z,99.4
2016-01-13T00:55:50.005Z,99.77
2016-01-13T00:56:01.474Z,99.4
2016-01-13T00:56:12.927Z,99.3
2016-01-13T00:56:24.396Z,99.4
2016-01-13T00:56:35.696Z,99.4
2016-01-13T00:56:47.165Z,99.4
2016-01-13T00:56:58.633Z,99.3
2016-01-13T00:57:10.102Z,99.68
2016-01-13T00:57:21.555Z,99.4
2016-01-13T00:57:33.027Z,99.87
2016-01-13T00:57:44.496Z,99.87
2016-01-13T00:57:55.980Z,99.96
2016-01-13T00:58:07.465Z,99.99
2016-01-13T00:58:18.949Z,99.99
2016-01-13T00:58:30.386Z,99.99
2016-01-13T00:58:41.857Z,99.99
2016-01-13T00:58:52.607Z,99.58
2016-01-13T00:59:03.920Z,99.58
2016-01-13T00:59:15.388Z,99.68
2016-01-13T00:59:26.857Z,99.68
2016-01-13T00:59:38.329Z,99.77
2016-01-13T00:59:49.798Z,99.58
2016-01-13T01:00:01.251Z,99.58
2016-01-13T01:00:12.735Z,99.58
2016-01-13T01:00:24.204Z,99.68
2016-01-13T01:00:35.690Z,99.77
2016-01-13T01:00:47.190Z,99.68
2016-01-13T01:00:58.659Z,99.68
2016-01-13T01:01:09.393Z,99.68
2016-01-13T01:01:20.862Z,99.68
2016-01-13T01:01:32.315Z,99.58
2016-01-13T01:01:43.788Z,99.58
2016-01-13T01:01:55.241Z,99.68
2016-01-13T01:02:06.726Z,99.58
2016-01-13T01:02:18.241Z,99.96
2016-01-13T01:02:29.554Z,99.99
2016-01-13T01:02:40.931Z,99.99
2016-01-13T01:02:52.243Z,99.96
2016-01-13T01:03:02.837Z,99.96
2016-01-13T01:03:14.337Z,99.99
2016-01-13T01:03:26.353Z,99.3
2016-01-13T01:03:37.821Z,99.49
2016-01-13T01:03:49.292Z,99.49
2016-01-13T01:04:00.042Z,99.49
2016-01-13T01:04:11.495Z,99.49
2016-01-13T01:04:22.980Z,99.49
2016-01-13T01:04:34.448Z,99.87
2016-01-13T01:04:45.201Z,99.3
2016-01-13T01:04:56.654Z,99.3
2016-01-13T01:05:08.123Z,99.87
2016-01-13T01:05:19.592Z,99.49
2016-01-13T01:05:31.061Z,99.96
2016-01-13T01:05:42.533Z,99.49
2016-01-13T01:05:54.033Z,99.3
2016-01-13T01:06:04.799Z,99.3
2016-01-13T01:06:16.252Z,99.4
2016-01-13T01:06:27.721Z,99.3
2016-01-13T01:06:39.174Z,99.3
2016-01-13T01:06:50.645Z,99.77
2016-01-13T01:07:02.114Z,99.4
2016-01-13T01:07:13.582Z,99.4
2016-01-13T01:07:25.035Z,99.3
2016-01-13T01:07:36.489Z,99.4
2016-01-13T01:07:47.960Z,99.4
2016-01-13T01:07:59.445Z,99.4
2016-01-13T01:08:10.929Z,99.49
2016-01-13T01:08:22.429Z,99.58
2016-01-13T01:08:33.913Z,99.4
2016-01-13T01:08:45.384Z,99.68
2016-01-13T01:08:56.837Z,99.58
2016-01-13T01:09:08.290Z,99.68
2016-01-13T01:09:19.744Z,99.58
2016-01-13T01:09:31.197Z,99.4
2016-01-13T01:09:42.668Z,99.4
2016-01-13T01:09:54.137Z,99.4
2016-01-13T01:10:05.590Z,99.4
2016-01-13T01:10:17.075Z,99.3
2016-01-13T01:10:28.543Z,99.3
2016-01-13T01:10:40.028Z,99.49
2016-01-13T01:10:51.500Z,99.49
2016-01-13T01:11:03.000Z,99.87
2016-01-13T01:11:14.484Z,99.96
2016-01-13T01:11:25.937Z,99.96
2016-01-13T01:11:37.406Z,99.96
2016-01-13T01:11:48.861Z,99.99
2016-01-13T01:12:00.330Z,99.87
2016-01-13T01:12:11.814Z,99.99
2016-01-13T01:12:23.267Z,99.21
2016-01-13T01:12:34.736Z,99.99
2016-01-13T01:12:46.192Z,99.96
2016-01-13T01:12:57.645Z,99.58
2016-01-13T01:13:09.114Z,99.49
2016-01-13T01:13:20.567Z,99.77
2016-01-13T01:13:32.067Z,99.87
2016-01-13T01:13:43.539Z,99.58
2016-01-13T01:13:54.992Z,99.87
2016-01-13T01:14:06.461Z,99.99
2016-01-13T01:14:17.914Z,99.99
2016-01-13T01:14:29.351Z,99.49
2016-01-13T01:14:40.804Z,99.99
2016-01-13T01:14:52.276Z,99.99
2016-01-13T01:15:03.589Z,99.58
2016-01-13T01:15:15.073Z,99.87
2016-01-13T01:15:26.542Z,99.99
2016-01-13T01:15:38.026Z,99.96
2016-01-13T01:15:49.497Z,99.99
2016-01-13T01:16:00.981Z,99.99
2016-01-13T01:16:12.466Z,99.96
2016-01-13T01:16:23.934Z,99.99
2016-01-13T01:16:35.388Z,99.77
2016-01-13T01:16:46.822Z,99.99
2016-01-13T01:16:58.291Z,99.99
2016-01-13T01:17:09.744Z,99.58
2016-01-13T01:17:21.213Z,99.99
2016-01-13T01:17:32.681Z,99.99
2016-01-13T01:17:44.124Z,99.87
2016-01-13T01:17:55.608Z,99.99
2016-01-13T01:18:07.077Z,99.99
2016-01-13T01:18:18.545Z,99.96
2016-01-13T01:18:30.045Z,99.96
2016-01-13T01:18:41.530Z,99.96
2016-01-13T01:18:53.020Z,99.99
2016-01-13T01:19:04.520Z,99.99
2016-01-13T01:19:15.989Z,99.99
2016-01-13T01:19:27.457Z,99.87
2016-01-13T01:19:38.910Z,99.68
2016-01-13T01:19:50.369Z,99.99
2016-01-13T01:20:01.838Z,99.99
2016-01-13T01:20:13.291Z,99.58
2016-01-13T01:20:24.744Z,99.99
2016-01-13T01:20:36.229Z,99.99
2016-01-13T01:20:47.686Z,99.68
2016-01-13T01:20:59.171Z,99.68
2016-01-13T01:21:10.639Z,99.68
2016-01-13T01:21:22.108Z,99.58
2016-01-13T01:22:08.180Z,99.68
2016-01-13T01:22:19.743Z,99.68
2016-01-13T01:22:30.493Z,99.68
2016-01-13T01:22:41.946Z,99.49
2016-01-13T01:22:53.415Z,99.58
2016-01-13T01:23:04.883Z,99.99
2016-01-13T01:23:16.334Z,99.99
2016-01-13T01:23:27.818Z,99.96
2016-01-13T01:23:39.287Z,99.96
2016-01-13T01:23:50.771Z,99.96
2016-01-13T01:24:02.255Z,99.87
2016-01-13T01:24:13.738Z,99.49
2016-01-13T01:24:25.238Z,99.4
2016-01-13T01:24:36.722Z,99.4
2016-01-13T01:24:48.035Z,99.4
2016-01-13T01:24:59.503Z,99.77
2016-01-13T01:25:10.955Z,99.49
2016-01-13T01:25:22.423Z,99.58
2016-01-13T01:25:33.876Z,99.21
2016-01-13T01:25:45.361Z,99.21
2016-01-13T01:25:56.830Z,99.21
2016-01-13T01:26:08.283Z,99.21
2016-01-13T01:26:19.765Z,99.21
2016-01-13T01:26:31.249Z,99.4
2016-01-13T01:26:42.703Z,99.3
2016-01-13T01:26:54.203Z,98.83
2016-01-13T01:27:05.687Z,99.11
2016-01-13T01:27:17.141Z,99.02
2016-01-13T01:27:28.610Z,99.11
2016-01-13T01:27:40.063Z,98.93
2016-01-13T01:27:51.532Z,98.83
2016-01-13T01:28:03.016Z,99.02
2016-01-13T01:28:14.471Z,99.02
2016-01-13T01:28:25.940Z,98.93
2016-01-13T01:28:37.393Z,99.02
2016-01-13T01:28:48.877Z,99.02
2016-01-13T01:29:00.190Z,98.83
2016-01-13T01:29:11.660Z,99.02
2016-01-13T01:29:23.128Z,98.74
2016-01-13T01:29:34.613Z,99.02
2016-01-13T01:29:46.113Z,99.02
2016-01-13T01:29:57.582Z,98.83
2016-01-13T01:30:09.035Z,98.93
2016-01-13T01:30:20.504Z,98.83
2016-01-13T01:30:31.973Z,98.93
2016-01-13T01:30:43.426Z,98.93
2016-01-13T01:30:54.879Z,98.74
2016-01-13T01:31:06.333Z,99.02
2016-01-13T01:31:17.802Z,98.74
2016-01-13T01:31:29.255Z,98.74
2016-01-13T01:31:40.740Z,99.11
2016-01-13T01:31:52.209Z,99.02
2016-01-13T01:32:03.709Z,99.11
2016-01-13T01:32:15.195Z,99.11
2016-01-13T01:32:26.695Z,99.11
2016-01-13T01:32:38.211Z,99.11
2016-01-13T01:32:49.664Z,99.21
2016-01-13T01:33:01.132Z,99.21
2016-01-13T01:33:12.588Z,99.3
2016-01-13T01:33:23.322Z,99.21
2016-01-13T01:33:34.775Z,99.49
2016-01-13T01:33:46.244Z,99.21
2016-01-13T01:33:57.713Z,98.93
2016-01-13T01:34:08.338Z,98.93
2016-01-13T01:34:19.793Z,98.93
2016-01-13T01:34:31.277Z,99.3
2016-01-13T01:34:42.746Z,98.93
2016-01-13T01:34:54.215Z,99.3
2016-01-13T01:35:05.699Z,99.21
2016-01-13T01:35:17.200Z,99.11
2016-01-13T01:35:28.684Z,99.11
2016-01-13T01:35:40.169Z,99.02
2016-01-13T01:35:51.669Z,98.93
2016-01-13T01:36:03.137Z,99.21
2016-01-13T01:36:14.625Z,99.21
2016-01-13T01:36:26.094Z,99.11
2016-01-13T01:36:37.562Z,99.21
2016-01-13T01:36:49.015Z,98.83
2016-01-13T01:37:00.469Z,98.55
2016-01-13T01:37:11.922Z,98.65
2016-01-13T01:37:23.392Z,98.83
2016-01-13T01:37:34.877Z,98.93
2016-01-13T01:37:46.346Z,98.83
2016-01-13T01:37:57.830Z,98.74
2016-01-13T01:38:09.314Z,98.83
2016-01-13T01:38:20.786Z,98.65
2016-01-13T01:38:32.239Z,98.74
2016-01-13T01:38:43.692Z,98.83
2016-01-13T01:38:55.161Z,98.74
2016-01-13T01:39:06.614Z,98.74
2016-01-13T01:39:18.086Z,98.55
2016-01-13T01:39:29.555Z,98.93
2016-01-13T01:39:41.008Z,98.74
2016-01-13T01:39:52.492Z,98.65
2016-01-13T01:40:03.977Z,98.74
2016-01-13T01:40:15.447Z,98.55
2016-01-13T01:40:26.932Z,98.74
2016-01-13T01:40:38.416Z,98.74
2016-01-13T01:40:49.885Z,98.83
2016-01-13T01:41:01.354Z,98.74
2016-01-13T01:41:12.822Z,98.83
2016-01-13T01:41:24.294Z,98.93
2016-01-13T01:41:35.763Z,98.93
2016-01-13T01:41:47.232Z,98.55
2016-01-13T01:41:58.685Z,98.65
2016-01-13T01:42:10.153Z,98.93
2016-01-13T01:42:21.610Z,98.65
2016-01-13T01:42:33.078Z,98.65
2016-01-13T01:42:44.547Z,98.74
2016-01-13T01:42:56.031Z,98.74
2016-01-13T01:43:07.531Z,98.83
2016-01-13T01:43:19.019Z,98.65
2016-01-13T01:43:30.503Z,98.83
2016-01-13T01:43:41.831Z,98.93
2016-01-13T01:43:53.284Z,99.02
2016-01-13T01:44:04.738Z,98.83
2016-01-13T01:44:16.193Z,98.83
2016-01-13T01:44:27.661Z,98.74
2016-01-13T01:44:39.115Z,98.83
2016-01-13T01:44:50.583Z,98.65
2016-01-13T01:45:02.036Z,98.74
2016-01-13T01:45:13.583Z,98.74
2016-01-13T01:45:25.071Z,98.74
2016-01-13T01:45:36.524Z,98.93
2016-01-13T01:45:47.993Z,99.02
2016-01-13T01:45:59.446Z,99.02
2016-01-13T01:46:10.899Z,99.02
2016-01-13T01:46:22.370Z,98.83
2016-01-13T01:46:33.838Z,98.55
2016-01-13T01:46:45.291Z,98.74
2016-01-13T01:46:56.995Z,99.02
2016-01-13T01:47:08.479Z,98.93
2016-01-13T01:47:19.967Z,98.46
2016-01-13T01:47:31.420Z,98.55
2016-01-13T01:47:42.874Z,98.83
2016-01-13T01:47:54.327Z,98.55
2016-01-13T01:48:05.795Z,98.36
2016-01-13T01:48:17.266Z,98.36
2016-01-13T01:48:28.735Z,98.27
2016-01-13T01:48:40.204Z,98.65
2016-01-13T01:48:51.672Z,98.55
2016-01-13T01:49:03.126Z,98.27
2016-01-13T01:49:14.610Z,98.36
2016-01-13T01:49:26.082Z,98.36
2016-01-13T01:49:37.582Z,98.46
2016-01-13T01:49:49.082Z,98.46
2016-01-13T01:50:00.582Z,98.36
2016-01-13T01:50:12.050Z,98.36
2016-01-13T01:50:23.507Z,98.36
2016-01-13T01:50:34.975Z,98.65
2016-01-13T01:50:46.444Z,98.65
2016-01-13T01:50:57.897Z,98.65
2016-01-13T01:51:09.350Z,98.36
2016-01-13T01:51:20.806Z,98.36
2016-01-13T01:51:32.275Z,98.36
2016-01-13T01:51:43.760Z,98.36
2016-01-13T01:51:55.228Z,98.36
2016-01-13T01:52:06.697Z,98.36
2016-01-13T01:52:18.183Z,98.36
2016-01-13T01:52:29.683Z,98.36
2016-01-13T01:52:41.152Z,98.36
2016-01-13T01:52:52.621Z,98.65
2016-01-13T01:53:04.074Z,98.55
2016-01-13T01:53:15.543Z,98.55
2016-01-13T01:53:26.998Z,98.55
2016-01-13T01:53:38.435Z,98.74
2016-01-13T01:53:49.904Z,98.65
2016-01-13T01:54:01.357Z,98.55
2016-01-13T01:54:12.810Z,98.27
2016-01-13T01:54:24.283Z,98.74
2016-01-13T01:54:35.752Z,98.74
2016-01-13T01:54:47.236Z,98.27
2016-01-13T01:54:58.736Z,98.27
2016-01-13T01:55:10.236Z,98.27
2016-01-13T01:55:21.754Z,98.27
2016-01-13T01:55:33.223Z,98.27
2016-01-13T01:55:44.676Z,98.83
2016-01-13T01:55:56.145Z,98.36
2016-01-13T01:56:07.613Z,98.55
2016-01-13T01:56:19.053Z,98.36
2016-01-13T01:56:30.522Z,98.18
2016-01-13T01:56:41.975Z,98.74
2016-01-13T01:56:53.443Z,98.55
2016-01-13T01:57:04.928Z,98.55
2016-01-13T01:57:16.397Z,98.55
2016-01-13T01:57:27.884Z,98.46
2016-01-13T01:57:39.368Z,98.55
2016-01-13T01:57:50.853Z,98.36
2016-01-13T01:58:01.650Z,98.36
2016-01-13T01:58:13.118Z,98.65
2016-01-13T01:58:24.590Z,98.27
2016-01-13T01:58:36.059Z,98.18
2016-01-13T01:58:47.528Z,98.27
2016-01-13T01:58:58.996Z,98.36
2016-01-13T01:59:10.449Z,98.36
2016-01-13T01:59:21.937Z,98.55
2016-01-13T01:59:33.406Z,98.36
2016-01-13T01:59:44.890Z,98.36
2016-01-13T01:59:56.374Z,98.36
2016-01-13T02:00:07.859Z,98.55
2016-01-13T02:00:19.343Z,98.55
2016-01-13T02:00:30.830Z,98.55
2016-01-13T02:00:42.284Z,98.83
2016-01-13T02:00:53.768Z,98.55
2016-01-13T02:01:04.534Z,98.55
2016-01-13T02:01:15.987Z,98.46
2016-01-13T02:01:27.457Z,98.93
2016-01-13T02:01:38.911Z,98.46
2016-01-13T02:01:50.364Z,98.83
2016-01-13T02:02:01.832Z,98.74
2016-01-13T02:02:13.317Z,98.74
2016-01-13T02:02:24.820Z,98.74
2016-01-13T02:02:36.289Z,98.93
2016-01-13T02:02:47.804Z,98.83
2016-01-13T02:02:59.289Z,98.74
2016-01-13T02:03:10.757Z,98.83
2016-01-13T02:03:22.260Z,98.74
2016-01-13T02:03:33.729Z,98.83
2016-01-13T02:03:45.198Z,98.83
2016-01-13T02:03:56.682Z,98.83
2016-01-13T02:04:08.135Z,98.93
2016-01-13T02:04:19.604Z,98.74
2016-01-13T02:04:31.059Z,98.74
2016-01-13T02:04:42.512Z,98.74
2016-01-13T02:04:53.981Z,98.74
2016-01-13T02:05:05.450Z,98.74
2016-01-13T02:05:16.919Z,98.46
2016-01-13T02:05:28.406Z,98.83
2016-01-13T02:05:39.906Z,98.93
2016-01-13T02:05:51.406Z,99.02
2016-01-13T02:06:02.890Z,98.65
2016-01-13T02:06:14.390Z,98.74
2016-01-13T02:06:25.846Z,98.93
2016-01-13T02:06:37.300Z,98.83
2016-01-13T02:06:48.768Z,98.93
2016-01-13T02:07:00.206Z,99.02
2016-01-13T02:07:11.675Z,98.74
2016-01-13T02:07:23.145Z,98.83
2016-01-13T02:07:34.614Z,98.83
2016-01-13T02:07:46.098Z,98.83
2016-01-13T02:07:57.567Z,98.93
2016-01-13T02:08:09.036Z,98.93
2016-01-13T02:08:20.520Z,98.74
2016-01-13T02:08:31.992Z,98.46
2016-01-13T02:08:43.461Z,98.55
2016-01-13T02:08:54.930Z,98.46
2016-01-13T02:09:06.383Z,98.46
2016-01-13T02:09:17.851Z,98.36
2016-01-13T02:09:29.308Z,98.36
2016-01-13T02:09:40.776Z,98.27
2016-01-13T02:09:52.245Z,98.27
2016-01-13T02:10:03.683Z,98.27
2016-01-13T02:10:15.151Z,98.18
2016-01-13T02:10:26.639Z,98.55
2016-01-13T02:10:38.107Z,98.36
2016-01-13T02:10:49.607Z,98.55
2016-01-13T02:11:01.107Z,98.46
2016-01-13T02:11:12.607Z,98.55
2016-01-13T02:11:24.094Z,98.27
2016-01-13T02:11:35.594Z,98.18
2016-01-13T02:11:47.063Z,98.46
2016-01-13T02:11:58.531Z,98.46
2016-01-13T02:12:10.000Z,98.36
2016-01-13T02:12:21.453Z,98.36
2016-01-13T02:12:32.909Z,98.46
2016-01-13T02:12:44.378Z,98.55
2016-01-13T02:12:55.862Z,98.36
2016-01-13T02:13:07.331Z,98.55
2016-01-13T02:13:18.081Z,98.46
2016-01-13T02:13:29.568Z,98.55
2016-01-13T02:13:41.036Z,98.55
2016-01-13T02:13:52.505Z,98.55
2016-01-13T02:14:03.974Z,98.55
2016-01-13T02:14:15.443Z,98.55
2016-01-13T02:14:26.915Z,98.46
2016-01-13T02:14:38.384Z,98.08
2016-01-13T02:14:49.853Z,98.46
2016-01-13T02:15:01.306Z,98.46
2016-01-13T02:15:12.775Z,98.46
2016-01-13T02:15:24.228Z,98.55
2016-01-13T02:15:35.699Z,98.18
2016-01-13T02:15:47.167Z,98.08
2016-01-13T02:15:58.652Z,98.46
2016-01-13T02:16:10.152Z,98.46
2016-01-13T02:16:21.636Z,98.55
2016-01-13T02:16:32.404Z,98.55
2016-01-13T02:16:43.857Z,98.55
2016-01-13T02:16:55.310Z,98.46
2016-01-13T02:17:06.779Z,98.55
2016-01-13T02:17:18.232Z,98.55
2016-01-13T02:17:29.704Z,98.36
2016-01-13T02:17:40.454Z,98.36
2016-01-13T02:17:51.922Z,98.46
2016-01-13T02:18:03.375Z,98.46
2016-01-13T02:18:14.860Z,98.36
2016-01-13T02:18:26.344Z,98.46
2016-01-13T02:18:37.816Z,98.46
2016-01-13T02:18:49.316Z,98.46
2016-01-13T02:19:00.785Z,98.46
2016-01-13T02:19:12.253Z,98.46
2016-01-13T02:19:23.769Z,98.46
2016-01-13T02:19:35.256Z,98.46
2016-01-13T02:19:46.741Z,98.27
2016-01-13T02:19:58.225Z,98.27
2016-01-13T02:20:09.553Z,98.46
2016-01-13T02:20:21.038Z,98.55
2016-01-13T02:20:32.541Z,98.55
2016-01-13T02:20:43.994Z,98.36
2016-01-13T02:20:55.463Z,98.55
2016-01-13T02:21:06.931Z,98.46
2016-01-13T02:21:18.400Z,98.46
2016-01-13T02:21:29.855Z,98.55
2016-01-13T02:21:41.324Z,98.46
2016-01-13T02:21:52.777Z,98.46
2016-01-13T02:22:04.246Z,98.55
2016-01-13T02:22:15.746Z,98.55
2016-01-13T02:22:27.215Z,98.46
2016-01-13T02:22:38.702Z,98.46
2016-01-13T02:22:50.171Z,98.27
2016-01-13T02:23:01.655Z,98.55
2016-01-13T02:23:13.139Z,98.36
2016-01-13T02:23:24.608Z,98.08
2016-01-13T02:23:36.064Z,98.46
2016-01-13T02:23:47.517Z,98.36
2016-01-13T02:23:58.986Z,98.46
2016-01-13T02:24:10.455Z,98.36
2016-01-13T02:24:21.908Z,98.55
2016-01-13T02:24:33.379Z,98.46
2016-01-13T02:24:44.848Z,97.7
2016-01-13T02:24:56.316Z,97.89
2016-01-13T02:25:07.785Z,97.52
2016-01-13T02:25:19.238Z,97.8
2016-01-13T02:25:30.710Z,97.8
2016-01-13T02:25:42.038Z,97.8
2016-01-13T02:25:53.554Z,97.8
2016-01-13T02:26:05.038Z,97.8
2016-01-13T02:26:16.491Z,97.7
2016-01-13T02:26:27.944Z,97.8
2016-01-13T02:26:39.416Z,97.33
2016-01-13T02:26:50.854Z,97.61
2016-01-13T02:27:02.307Z,97.7
2016-01-13T02:27:13.604Z,97.52
2016-01-13T02:27:25.072Z,97.52
2016-01-13T02:27:36.543Z,97.42
2016-01-13T02:27:48.012Z,97.7
2016-01-13T02:27:59.481Z,97.61
2016-01-13T02:28:10.965Z,97.52
2016-01-13T02:28:22.434Z,97.61
2016-01-13T02:28:33.906Z,97.42